sensor_id;sensor_type;location;lat;lon;timestamp;P1;durP1;ratioP1;P2;durP2;ratioP2
19587;SDS011;9940;47.252;8.696;2023-05-29T00:01:07;9.38;;;4.93;;
19587;SDS011;9940;47.252;8.696;2023-05-29T00:03:34;7.07;;;4.20;;
19587;SDS011;9940;47.252;8.696;2023-05-29T00:06:06;9.05;;;4.60;;
19587;SDS011;9940;47.252;8.696;2023-05-29T00:08:36;7.35;;;4.47;;
19587;SDS011;9940;47.252;8.696;2023-05-29T00:11:04;6.75;;;4.65;;
19587;SDS011;9940;47.252;8.696;2023-05-29T00:13:38;6.10;;;4.28;;
19587;SDS011;9940;47.252;8.696;2023-05-29T00:16:06;5.95;;;4.57;;
19587;SDS011;9940;47.252;8.696;2023-05-29T00:18:37;6.75;;;3.78;;
19587;SDS011;9940;47.252;8.696;2023-05-29T00:21:12;7.45;;;4.30;;
19587;SDS011;9940;47.252;8.696;2023-05-29T00:23:38;7.25;;;4.13;;
19587;SDS011;9940;47.252;8.696;2023-05-29T00:26:04;6.25;;;3.92;;
19587;SDS011;9940;47.252;8.696;2023-05-29T00:28:38;6.28;;;3.78;;
19587;SDS011;9940;47.252;8.696;2023-05-29T00:31:06;5.43;;;4.07;;
19587;SDS011;9940;47.252;8.696;2023-05-29T00:33:36;5.82;;;4.28;;
19587;SDS011;9940;47.252;8.696;2023-05-29T00:36:02;7.60;;;4.50;;
19587;SDS011;9940;47.252;8.696;2023-05-29T00:38:30;7.20;;;4.32;;
19587;SDS011;9940;47.252;8.696;2023-05-29T00:40:56;8.80;;;4.13;;
19587;SDS011;9940;47.252;8.696;2023-05-29T00:43:24;8.07;;;4.18;;
19587;SDS011;9940;47.252;8.696;2023-05-29T00:45:55;9.43;;;4.80;;
19587;SDS011;9940;47.252;8.696;2023-05-29T00:48:30;10.20;;;4.53;;
19587;SDS011;9940;47.252;8.696;2023-05-29T00:50:56;5.93;;;4.75;;
19587;SDS011;9940;47.252;8.696;2023-05-29T00:53:23;9.43;;;4.85;;
19587;SDS011;9940;47.252;8.696;2023-05-29T00:55:53;10.50;;;4.05;;
19587;SDS011;9940;47.252;8.696;2023-05-29T00:58:19;6.43;;;3.85;;
19587;SDS011;9940;47.252;8.696;2023-05-29T01:00:45;8.48;;;4.90;;
19587;SDS011;9940;47.252;8.696;2023-05-29T01:03:14;6.57;;;3.75;;
19587;SDS011;9940;47.252;8.696;2023-05-29T01:05:44;9.02;;;4.13;;
19587;SDS011;9940;47.252;8.696;2023-05-29T01:08:18;7.30;;;3.92;;
19587;SDS011;9940;47.252;8.696;2023-05-29T01:10:44;8.10;;;4.22;;
19587;SDS011;9940;47.252;8.696;2023-05-29T01:13:19;8.25;;;4.18;;
19587;SDS011;9940;47.252;8.696;2023-05-29T01:16:03;7.97;;;4.63;;
19587;SDS011;9940;47.252;8.696;2023-05-29T01:18:39;5.88;;;4.00;;
19587;SDS011;9940;47.252;8.696;2023-05-29T01:21:23;7.32;;;4.30;;
19587;SDS011;9940;47.252;8.696;2023-05-29T01:29:26;7.88;;;4.57;;
19587;SDS011;9940;47.252;8.696;2023-05-29T01:31:56;9.23;;;5.05;;
19587;SDS011;9940;47.252;8.696;2023-05-29T01:34:25;6.20;;;4.07;;
19587;SDS011;9940;47.252;8.696;2023-05-29T01:36:51;6.65;;;4.03;;
19587;SDS011;9940;47.252;8.696;2023-05-29T01:39:17;8.90;;;4.25;;
19587;SDS011;9940;47.252;8.696;2023-05-29T01:41:47;7.03;;;3.72;;
19587;SDS011;9940;47.252;8.696;2023-05-29T01:44:13;7.63;;;3.75;;
19587;SDS011;9940;47.252;8.696;2023-05-29T01:46:42;7.85;;;4.15;;
19587;SDS011;9940;47.252;8.696;2023-05-29T01:49:27;6.45;;;4.05;;
19587;SDS011;9940;47.252;8.696;2023-05-29T01:51:54;7.53;;;4.22;;
19587;SDS011;9940;47.252;8.696;2023-05-29T01:54:20;6.60;;;3.88;;
19587;SDS011;9940;47.252;8.696;2023-05-29T01:56:48;5.78;;;4.13;;
19587;SDS011;9940;47.252;8.696;2023-05-29T01:59:15;6.47;;;4.18;;
19587;SDS011;9940;47.252;8.696;2023-05-29T02:01:43;7.55;;;4.40;;
19587;SDS011;9940;47.252;8.696;2023-05-29T02:04:09;6.38;;;4.00;;
19587;SDS011;9940;47.252;8.696;2023-05-29T02:06:35;7.25;;;4.30;;
19587;SDS011;9940;47.252;8.696;2023-05-29T02:09:02;11.30;;;4.50;;
19587;SDS011;9940;47.252;8.696;2023-05-29T02:11:30;10.07;;;4.60;;
19587;SDS011;9940;47.252;8.696;2023-05-29T02:13:56;6.28;;;4.60;;
19587;SDS011;9940;47.252;8.696;2023-05-29T02:16:24;5.65;;;3.78;;
19587;SDS011;9940;47.252;8.696;2023-05-29T02:18:55;5.38;;;3.50;;
19587;SDS011;9940;47.252;8.696;2023-05-29T02:21:22;5.85;;;3.75;;
19587;SDS011;9940;47.252;8.696;2023-05-29T02:23:50;7.20;;;4.07;;
19587;SDS011;9940;47.252;8.696;2023-05-29T02:26:18;9.98;;;4.97;;
19587;SDS011;9940;47.252;8.696;2023-05-29T02:28:44;7.68;;;3.78;;
19587;SDS011;9940;47.252;8.696;2023-05-29T02:31:13;7.22;;;4.13;;
19587;SDS011;9940;47.252;8.696;2023-05-29T02:33:41;8.00;;;3.92;;
19587;SDS011;9940;47.252;8.696;2023-05-29T02:36:11;5.43;;;3.65;;
19587;SDS011;9940;47.252;8.696;2023-05-29T02:38:41;7.50;;;4.15;;
19587;SDS011;9940;47.252;8.696;2023-05-29T02:41:09;7.30;;;4.63;;
19587;SDS011;9940;47.252;8.696;2023-05-29T02:43:40;8.45;;;3.90;;
19587;SDS011;9940;47.252;8.696;2023-05-29T02:46:08;7.68;;;4.60;;
19587;SDS011;9940;47.252;8.696;2023-05-29T02:48:51;6.10;;;4.05;;
19587;SDS011;9940;47.252;8.696;2023-05-29T02:51:17;9.10;;;5.13;;
19587;SDS011;9940;47.252;8.696;2023-05-29T02:54:05;8.25;;;4.47;;
19587;SDS011;9940;47.252;8.696;2023-05-29T02:56:38;8.38;;;4.22;;
19587;SDS011;9940;47.252;8.696;2023-05-29T02:59:04;7.03;;;4.20;;
19587;SDS011;9940;47.252;8.696;2023-05-29T03:01:30;7.50;;;4.47;;
19587;SDS011;9940;47.252;8.696;2023-05-29T03:04:00;9.05;;;4.35;;
19587;SDS011;9940;47.252;8.696;2023-05-29T03:06:25;5.88;;;4.38;;
19587;SDS011;9940;47.252;8.696;2023-05-29T03:08:53;7.25;;;4.50;;
19587;SDS011;9940;47.252;8.696;2023-05-29T03:11:19;7.35;;;4.53;;
19587;SDS011;9940;47.252;8.696;2023-05-29T03:13:46;6.53;;;3.92;;
19587;SDS011;9940;47.252;8.696;2023-05-29T03:16:12;8.90;;;4.30;;
19587;SDS011;9940;47.252;8.696;2023-05-29T03:18:41;7.05;;;3.88;;
19587;SDS011;9940;47.252;8.696;2023-05-29T03:21:09;5.63;;;3.67;;
19587;SDS011;9940;47.252;8.696;2023-05-29T03:23:35;8.27;;;3.92;;
19587;SDS011;9940;47.252;8.696;2023-05-29T03:26:11;10.82;;;5.22;;
19587;SDS011;9940;47.252;8.696;2023-05-29T03:28:43;7.15;;;4.00;;
19587;SDS011;9940;47.252;8.696;2023-05-29T03:31:09;9.25;;;4.07;;
19587;SDS011;9940;47.252;8.696;2023-05-29T03:33:39;10.73;;;4.15;;
19587;SDS011;9940;47.252;8.696;2023-05-29T03:36:10;9.15;;;3.97;;
19587;SDS011;9940;47.252;8.696;2023-05-29T03:38:38;7.47;;;3.58;;
19587;SDS011;9940;47.252;8.696;2023-05-29T03:41:06;7.28;;;4.10;;
19587;SDS011;9940;47.252;8.696;2023-05-29T03:43:35;6.75;;;4.00;;
19587;SDS011;9940;47.252;8.696;2023-05-29T03:46:03;6.43;;;3.42;;
19587;SDS011;9940;47.252;8.696;2023-05-29T03:48:28;6.05;;;3.90;;
19587;SDS011;9940;47.252;8.696;2023-05-29T03:50:57;9.07;;;4.10;;
19587;SDS011;9940;47.252;8.696;2023-05-29T03:53:23;9.25;;;3.95;;
19587;SDS011;9940;47.252;8.696;2023-05-29T03:55:48;9.70;;;4.00;;
19587;SDS011;9940;47.252;8.696;2023-05-29T03:58:14;5.57;;;3.80;;
19587;SDS011;9940;47.252;8.696;2023-05-29T04:00:40;9.38;;;4.10;;
19587;SDS011;9940;47.252;8.696;2023-05-29T04:03:08;6.28;;;4.07;;
19587;SDS011;9940;47.252;8.696;2023-05-29T04:05:38;7.05;;;3.88;;
19587;SDS011;9940;47.252;8.696;2023-05-29T04:08:07;8.32;;;4.43;;
19587;SDS011;9940;47.252;8.696;2023-05-29T04:10:35;7.18;;;3.95;;
19587;SDS011;9940;47.252;8.696;2023-05-29T04:13:06;8.27;;;4.10;;
19587;SDS011;9940;47.252;8.696;2023-05-29T04:15:32;8.73;;;4.75;;
19587;SDS011;9940;47.252;8.696;2023-05-29T04:18:03;7.88;;;3.83;;
19587;SDS011;9940;47.252;8.696;2023-05-29T04:20:46;7.05;;;4.05;;
19587;SDS011;9940;47.252;8.696;2023-05-29T04:23:15;8.02;;;4.65;;
19587;SDS011;9940;47.252;8.696;2023-05-29T04:25:53;5.32;;;3.83;;
19587;SDS011;9940;47.252;8.696;2023-05-29T04:28:22;8.80;;;3.63;;
19587;SDS011;9940;47.252;8.696;2023-05-29T04:30:49;10.23;;;4.72;;
19587;SDS011;9940;47.252;8.696;2023-05-29T04:33:22;6.55;;;3.90;;
19587;SDS011;9940;47.252;8.696;2023-05-29T04:35:50;7.38;;;4.32;;
19587;SDS011;9940;47.252;8.696;2023-05-29T04:38:16;7.97;;;4.22;;
19587;SDS011;9940;47.252;8.696;2023-05-29T04:40:44;11.88;;;4.15;;
19587;SDS011;9940;47.252;8.696;2023-05-29T04:43:17;9.10;;;4.90;;
19587;SDS011;9940;47.252;8.696;2023-05-29T04:45:43;8.48;;;4.20;;
19587;SDS011;9940;47.252;8.696;2023-05-29T04:48:13;7.78;;;4.38;;
19587;SDS011;9940;47.252;8.696;2023-05-29T04:50:41;6.90;;;4.30;;
19587;SDS011;9940;47.252;8.696;2023-05-29T04:53:18;10.35;;;5.10;;
19587;SDS011;9940;47.252;8.696;2023-05-29T04:55:56;8.73;;;4.68;;
19587;SDS011;9940;47.252;8.696;2023-05-29T04:58:25;8.57;;;4.60;;
19587;SDS011;9940;47.252;8.696;2023-05-29T05:01:01;8.98;;;4.85;;
19587;SDS011;9940;47.252;8.696;2023-05-29T05:03:30;8.20;;;4.07;;
19587;SDS011;9940;47.252;8.696;2023-05-29T05:06:02;18.00;;;5.32;;
19587;SDS011;9940;47.252;8.696;2023-05-29T05:08:29;7.32;;;4.55;;
19587;SDS011;9940;47.252;8.696;2023-05-29T05:10:57;10.32;;;4.85;;
19587;SDS011;9940;47.252;8.696;2023-05-29T05:13:24;9.15;;;4.90;;
19587;SDS011;9940;47.252;8.696;2023-05-29T05:15:50;7.43;;;4.47;;
19587;SDS011;9940;47.252;8.696;2023-05-29T05:18:16;8.82;;;4.60;;
19587;SDS011;9940;47.252;8.696;2023-05-29T05:20:51;9.45;;;4.57;;
19587;SDS011;9940;47.252;8.696;2023-05-29T05:23:19;9.70;;;4.10;;
19587;SDS011;9940;47.252;8.696;2023-05-29T05:25:49;9.20;;;4.20;;
19587;SDS011;9940;47.252;8.696;2023-05-29T05:28:35;8.23;;;4.25;;
19587;SDS011;9940;47.252;8.696;2023-05-29T05:31:21;10.02;;;4.38;;
19587;SDS011;9940;47.252;8.696;2023-05-29T05:33:50;7.78;;;4.65;;
19587;SDS011;9940;47.252;8.696;2023-05-29T05:36:16;9.02;;;4.78;;
19587;SDS011;9940;47.252;8.696;2023-05-29T05:38:41;10.45;;;4.97;;
19587;SDS011;9940;47.252;8.696;2023-05-29T05:41:07;7.43;;;4.35;;
19587;SDS011;9940;47.252;8.696;2023-05-29T05:43:32;8.85;;;4.95;;
19587;SDS011;9940;47.252;8.696;2023-05-29T05:46:00;8.50;;;4.07;;
19587;SDS011;9940;47.252;8.696;2023-05-29T05:48:34;8.40;;;4.22;;
19587;SDS011;9940;47.252;8.696;2023-05-29T05:51:02;9.27;;;4.57;;
19587;SDS011;9940;47.252;8.696;2023-05-29T05:53:53;7.53;;;4.57;;
19587;SDS011;9940;47.252;8.696;2023-05-29T05:56:21;8.63;;;4.60;;
19587;SDS011;9940;47.252;8.696;2023-05-29T05:58:47;7.18;;;4.68;;
19587;SDS011;9940;47.252;8.696;2023-05-29T06:01:15;7.60;;;4.38;;
19587;SDS011;9940;47.252;8.696;2023-05-29T06:03:41;6.68;;;4.60;;
19587;SDS011;9940;47.252;8.696;2023-05-29T06:06:09;9.38;;;4.97;;
19587;SDS011;9940;47.252;8.696;2023-05-29T06:08:42;11.15;;;4.55;;
19587;SDS011;9940;47.252;8.696;2023-05-29T06:11:08;8.18;;;4.43;;
19587;SDS011;9940;47.252;8.696;2023-05-29T06:13:36;9.45;;;4.30;;
19587;SDS011;9940;47.252;8.696;2023-05-29T06:16:31;9.45;;;4.18;;
19587;SDS011;9940;47.252;8.696;2023-05-29T06:19:02;12.05;;;4.47;;
19587;SDS011;9940;47.252;8.696;2023-05-29T06:21:31;8.88;;;4.32;;
19587;SDS011;9940;47.252;8.696;2023-05-29T06:23:59;13.68;;;5.28;;
19587;SDS011;9940;47.252;8.696;2023-05-29T06:26:27;8.85;;;4.55;;
19587;SDS011;9940;47.252;8.696;2023-05-29T06:29:02;8.77;;;4.50;;
19587;SDS011;9940;47.252;8.696;2023-05-29T06:31:31;8.50;;;4.18;;
19587;SDS011;9940;47.252;8.696;2023-05-29T06:33:59;8.15;;;4.18;;
19587;SDS011;9940;47.252;8.696;2023-05-29T06:36:29;7.18;;;4.43;;
19587;SDS011;9940;47.252;8.696;2023-05-29T06:38:57;11.43;;;4.72;;
19587;SDS011;9940;47.252;8.696;2023-05-29T06:41:23;10.38;;;4.50;;
19587;SDS011;9940;47.252;8.696;2023-05-29T06:43:51;8.55;;;4.07;;
19587;SDS011;9940;47.252;8.696;2023-05-29T06:46:21;13.02;;;4.55;;
19587;SDS011;9940;47.252;8.696;2023-05-29T06:48:49;7.93;;;4.18;;
19587;SDS011;9940;47.252;8.696;2023-05-29T06:51:17;9.02;;;5.28;;
19587;SDS011;9940;47.252;8.696;2023-05-29T06:53:45;8.40;;;4.30;;
19587;SDS011;9940;47.252;8.696;2023-05-29T06:56:16;8.77;;;4.53;;
19587;SDS011;9940;47.252;8.696;2023-05-29T06:58:44;7.05;;;4.03;;
19587;SDS011;9940;47.252;8.696;2023-05-29T07:01:10;13.82;;;4.82;;
19587;SDS011;9940;47.252;8.696;2023-05-29T07:03:39;8.95;;;4.75;;
19587;SDS011;9940;47.252;8.696;2023-05-29T07:06:26;12.50;;;5.30;;
19587;SDS011;9940;47.252;8.696;2023-05-29T07:08:54;10.32;;;4.13;;
19587;SDS011;9940;47.252;8.696;2023-05-29T07:11:22;8.60;;;4.55;;
19587;SDS011;9940;47.252;8.696;2023-05-29T07:13:47;8.40;;;4.75;;
19587;SDS011;9940;47.252;8.696;2023-05-29T07:16:13;6.72;;;3.92;;
19587;SDS011;9940;47.252;8.696;2023-05-29T07:18:43;8.52;;;4.80;;
19587;SDS011;9940;47.252;8.696;2023-05-29T07:21:19;12.02;;;4.63;;
19587;SDS011;9940;47.252;8.696;2023-05-29T07:23:49;10.27;;;4.72;;
19587;SDS011;9940;47.252;8.696;2023-05-29T07:26:15;10.90;;;4.28;;
19587;SDS011;9940;47.252;8.696;2023-05-29T07:28:51;12.13;;;4.75;;
19587;SDS011;9940;47.252;8.696;2023-05-29T07:31:22;9.07;;;4.65;;
19587;SDS011;9940;47.252;8.696;2023-05-29T07:33:50;7.07;;;4.20;;
19587;SDS011;9940;47.252;8.696;2023-05-29T07:36:18;8.05;;;4.65;;
19587;SDS011;9940;47.252;8.696;2023-05-29T07:38:46;9.43;;;4.35;;
19587;SDS011;9940;47.252;8.696;2023-05-29T07:41:17;10.23;;;4.25;;
19587;SDS011;9940;47.252;8.696;2023-05-29T07:43:43;9.27;;;4.10;;
19587;SDS011;9940;47.252;8.696;2023-05-29T07:46:16;9.32;;;4.57;;
19587;SDS011;9940;47.252;8.696;2023-05-29T07:48:41;7.25;;;4.43;;
19587;SDS011;9940;47.252;8.696;2023-05-29T07:51:07;9.40;;;4.72;;
19587;SDS011;9940;47.252;8.696;2023-05-29T07:53:52;7.90;;;4.20;;
19587;SDS011;9940;47.252;8.696;2023-05-29T07:56:18;9.73;;;4.25;;
19587;SDS011;9940;47.252;8.696;2023-05-29T07:58:43;7.72;;;4.07;;
19587;SDS011;9940;47.252;8.696;2023-05-29T08:01:32;7.95;;;4.30;;
19587;SDS011;9940;47.252;8.696;2023-05-29T08:04:02;8.93;;;4.70;;
19587;SDS011;9940;47.252;8.696;2023-05-29T08:06:48;11.15;;;4.50;;
19587;SDS011;9940;47.252;8.696;2023-05-29T08:09:21;11.05;;;4.60;;
19587;SDS011;9940;47.252;8.696;2023-05-29T08:12:05;8.95;;;4.53;;
19587;SDS011;9940;47.252;8.696;2023-05-29T08:14:33;8.55;;;5.05;;
19587;SDS011;9940;47.252;8.696;2023-05-29T08:17:03;12.82;;;5.50;;
19587;SDS011;9940;47.252;8.696;2023-05-29T08:19:32;8.02;;;4.90;;
19587;SDS011;9940;47.252;8.696;2023-05-29T08:22:01;9.05;;;4.80;;
19587;SDS011;9940;47.252;8.696;2023-05-29T08:24:34;10.68;;;4.85;;
19587;SDS011;9940;47.252;8.696;2023-05-29T08:27:12;8.45;;;5.28;;
19587;SDS011;9940;47.252;8.696;2023-05-29T08:29:40;9.55;;;5.47;;
19587;SDS011;9940;47.252;8.696;2023-05-29T08:32:07;9.88;;;5.18;;
19587;SDS011;9940;47.252;8.696;2023-05-29T08:34:42;10.02;;;5.47;;
19587;SDS011;9940;47.252;8.696;2023-05-29T08:37:20;13.68;;;7.05;;
19587;SDS011;9940;47.252;8.696;2023-05-29T08:39:48;9.15;;;5.38;;
19587;SDS011;9940;47.252;8.696;2023-05-29T08:42:26;9.70;;;6.05;;
19587;SDS011;9940;47.252;8.696;2023-05-29T08:44:56;11.18;;;6.53;;
19587;SDS011;9940;47.252;8.696;2023-05-29T08:47:39;8.23;;;5.43;;
19587;SDS011;9940;47.252;8.696;2023-05-29T08:50:12;7.22;;;4.63;;
19587;SDS011;9940;47.252;8.696;2023-05-29T08:52:50;8.40;;;5.30;;
19587;SDS011;9940;47.252;8.696;2023-05-29T08:55:22;9.40;;;5.60;;
19587;SDS011;9940;47.252;8.696;2023-05-29T08:57:50;9.00;;;5.00;;
19587;SDS011;9940;47.252;8.696;2023-05-29T09:00:27;8.35;;;4.90;;
19587;SDS011;9940;47.252;8.696;2023-05-29T09:02:58;10.90;;;5.45;;
19587;SDS011;9940;47.252;8.696;2023-05-29T09:05:40;11.00;;;5.55;;
19587;SDS011;9940;47.252;8.696;2023-05-29T09:08:35;9.45;;;6.10;;
19587;SDS011;9940;47.252;8.696;2023-05-29T09:11:03;10.65;;;5.25;;
19587;SDS011;9940;47.252;8.696;2023-05-29T09:14:00;10.60;;;5.43;;
19587;SDS011;9940;47.252;8.696;2023-05-29T09:16:41;14.68;;;5.75;;
19587;SDS011;9940;47.252;8.696;2023-05-29T09:19:13;9.30;;;5.10;;
19587;SDS011;9940;47.252;8.696;2023-05-29T09:21:42;11.77;;;5.10;;
19587;SDS011;9940;47.252;8.696;2023-05-29T09:24:08;8.18;;;4.75;;
19587;SDS011;9940;47.252;8.696;2023-05-29T09:26:55;10.60;;;5.18;;
19587;SDS011;9940;47.252;8.696;2023-05-29T09:29:42;12.63;;;5.28;;
19587;SDS011;9940;47.252;8.696;2023-05-29T09:32:16;8.35;;;5.18;;
19587;SDS011;9940;47.252;8.696;2023-05-29T09:34:43;11.85;;;5.72;;
19587;SDS011;9940;47.252;8.696;2023-05-29T09:37:26;8.57;;;5.18;;
19587;SDS011;9940;47.252;8.696;2023-05-29T09:40:01;10.85;;;5.68;;
19587;SDS011;9940;47.252;8.696;2023-05-29T09:42:39;8.70;;;5.43;;
19587;SDS011;9940;47.252;8.696;2023-05-29T09:45:13;9.68;;;5.00;;
19587;SDS011;9940;47.252;8.696;2023-05-29T09:47:53;8.60;;;5.80;;
19587;SDS011;9940;47.252;8.696;2023-05-29T09:50:32;10.80;;;5.55;;
19587;SDS011;9940;47.252;8.696;2023-05-29T09:53:05;10.98;;;5.75;;
19587;SDS011;9940;47.252;8.696;2023-05-29T09:56:01;10.63;;;5.47;;
19587;SDS011;9940;47.252;8.696;2023-05-29T09:58:31;8.90;;;6.07;;
19587;SDS011;9940;47.252;8.696;2023-05-29T10:01:10;10.05;;;5.68;;
19587;SDS011;9940;47.252;8.696;2023-05-29T10:03:50;8.27;;;5.78;;
19587;SDS011;9940;47.252;8.696;2023-05-29T10:06:19;10.88;;;5.95;;
19587;SDS011;9940;47.252;8.696;2023-05-29T10:08:55;11.07;;;7.78;;
19587;SDS011;9940;47.252;8.696;2023-05-29T10:11:23;14.43;;;6.63;;
19587;SDS011;9940;47.252;8.696;2023-05-29T10:13:52;8.95;;;6.93;;
19587;SDS011;9940;47.252;8.696;2023-05-29T10:16:20;7.35;;;5.60;;
19587;SDS011;9940;47.252;8.696;2023-05-29T10:18:49;9.02;;;6.45;;
19587;SDS011;9940;47.252;8.696;2023-05-29T10:21:43;10.00;;;6.25;;
19587;SDS011;9940;47.252;8.696;2023-05-29T10:24:17;9.15;;;5.80;;
19587;SDS011;9940;47.252;8.696;2023-05-29T10:26:53;7.07;;;5.70;;
19587;SDS011;9940;47.252;8.696;2023-05-29T10:29:45;7.97;;;5.20;;
19587;SDS011;9940;47.252;8.696;2023-05-29T10:32:20;10.07;;;6.15;;
19587;SDS011;9940;47.252;8.696;2023-05-29T10:35:01;7.28;;;4.80;;
19587;SDS011;9940;47.252;8.696;2023-05-29T10:37:42;8.40;;;6.35;;
19587;SDS011;9940;47.252;8.696;2023-05-29T10:40:38;11.57;;;5.70;;
19587;SDS011;9940;47.252;8.696;2023-05-29T10:43:03;7.93;;;6.13;;
19587;SDS011;9940;47.252;8.696;2023-05-29T10:53:03;7.35;;;5.90;;
19587;SDS011;9940;47.252;8.696;2023-05-29T10:55:38;7.20;;;6.03;;
19587;SDS011;9940;47.252;8.696;2023-05-29T11:00:34;7.70;;;4.47;;
19587;SDS011;9940;47.252;8.696;2023-05-29T11:08:42;9.25;;;6.10;;
19587;SDS011;9940;47.252;8.696;2023-05-29T11:11:28;6.55;;;5.85;;
19587;SDS011;9940;47.252;8.696;2023-05-29T11:14:08;7.10;;;6.28;;
19587;SDS011;9940;47.252;8.696;2023-05-29T11:16:36;9.63;;;7.18;;
19587;SDS011;9940;47.252;8.696;2023-05-29T11:19:13;9.20;;;7.85;;
19587;SDS011;9940;47.252;8.696;2023-05-29T11:24:36;6.97;;;6.05;;
19587;SDS011;9940;47.252;8.696;2023-05-29T11:29:52;7.97;;;7.18;;
19587;SDS011;9940;47.252;8.696;2023-05-29T11:32:23;10.05;;;6.57;;
19587;SDS011;9940;47.252;8.696;2023-05-29T11:34:53;9.15;;;7.15;;
19587;SDS011;9940;47.252;8.696;2023-05-29T11:37:24;8.93;;;8.02;;
19587;SDS011;9940;47.252;8.696;2023-05-29T11:39:50;8.10;;;6.30;;
19587;SDS011;9940;47.252;8.696;2023-05-29T11:42:27;7.20;;;6.47;;
19587;SDS011;9940;47.252;8.696;2023-05-29T11:44:57;8.15;;;7.35;;
19587;SDS011;9940;47.252;8.696;2023-05-29T11:50:26;9.18;;;8.27;;
19587;SDS011;9940;47.252;8.696;2023-05-29T11:53:00;9.13;;;7.80;;
19587;SDS011;9940;47.252;8.696;2023-05-29T11:55:30;9.05;;;7.25;;
19587;SDS011;9940;47.252;8.696;2023-05-29T11:58:01;11.20;;;9.23;;
19587;SDS011;9940;47.252;8.696;2023-05-29T12:00:48;7.78;;;6.95;;
19587;SDS011;9940;47.252;8.696;2023-05-29T12:03:15;8.70;;;7.80;;
19587;SDS011;9940;47.252;8.696;2023-05-29T12:06:05;11.43;;;10.52;;
19587;SDS011;9940;47.252;8.696;2023-05-29T12:08:40;11.48;;;10.32;;
19587;SDS011;9940;47.252;8.696;2023-05-29T12:11:06;12.68;;;11.63;;
19587;SDS011;9940;47.252;8.696;2023-05-29T12:13:34;9.45;;;8.38;;
19587;SDS011;9940;47.252;8.696;2023-05-29T12:16:01;8.48;;;7.63;;
19587;SDS011;9940;47.252;8.696;2023-05-29T12:18:28;8.50;;;7.80;;
19587;SDS011;9940;47.252;8.696;2023-05-29T12:21:21;8.60;;;7.80;;
19587;SDS011;9940;47.252;8.696;2023-05-29T12:23:51;12.90;;;11.80;;
19587;SDS011;9940;47.252;8.696;2023-05-29T12:26:17;17.15;;;16.05;;
19587;SDS011;9940;47.252;8.696;2023-05-29T12:28:50;18.75;;;17.55;;
19587;SDS011;9940;47.252;8.696;2023-05-29T12:31:28;19.35;;;18.05;;
19587;SDS011;9940;47.252;8.696;2023-05-29T12:34:02;22.02;;;20.60;;
19587;SDS011;9940;47.252;8.696;2023-05-29T12:36:42;32.47;;;30.77;;
19587;SDS011;9940;47.252;8.696;2023-05-29T12:39:40;34.13;;;32.20;;
19587;SDS011;9940;47.252;8.696;2023-05-29T12:42:06;38.03;;;35.90;;
19587;SDS011;9940;47.252;8.696;2023-05-29T12:44:34;49.30;;;46.72;;
19587;SDS011;9940;47.252;8.696;2023-05-29T12:47:09;69.45;;;65.95;;
19587;SDS011;9940;47.252;8.696;2023-05-29T12:49:49;81.53;;;77.43;;
19587;SDS011;9940;47.252;8.696;2023-05-29T12:52:23;90.53;;;86.25;;
19587;SDS011;9940;47.252;8.696;2023-05-29T12:54:49;148.35;;;142.00;;
19587;SDS011;9940;47.252;8.696;2023-05-29T12:57:26;146.32;;;139.73;;
19587;SDS011;9940;47.252;8.696;2023-05-29T12:59:52;214.77;;;206.43;;
19587;SDS011;9940;47.252;8.696;2023-05-29T13:02:18;269.98;;;260.08;;
19587;SDS011;9940;47.252;8.696;2023-05-29T13:04:45;273.17;;;262.90;;
19587;SDS011;9940;47.252;8.696;2023-05-29T13:07:31;391.83;;;378.55;;
19587;SDS011;9940;47.252;8.696;2023-05-29T13:09:57;415.48;;;401.50;;
19587;SDS011;9940;47.252;8.696;2023-05-29T13:12:27;384.80;;;371.80;;
19587;SDS011;9940;47.252;8.696;2023-05-29T13:14:57;369.23;;;356.35;;
19587;SDS011;9940;47.252;8.696;2023-05-29T13:17:30;455.33;;;440.50;;
19587;SDS011;9940;47.252;8.696;2023-05-29T13:19:59;422.10;;;408.00;;
19587;SDS011;9940;47.252;8.696;2023-05-29T13:22:28;508.98;;;493.05;;
19587;SDS011;9940;47.252;8.696;2023-05-29T13:24:59;568.53;;;551.42;;
19587;SDS011;9940;47.252;8.696;2023-05-29T13:27:46;614.08;;;596.10;;
19587;SDS011;9940;47.252;8.696;2023-05-29T13:30:15;607.58;;;589.65;;
19587;SDS011;9940;47.252;8.696;2023-05-29T13:32:53;692.20;;;672.42;;
19587;SDS011;9940;47.252;8.696;2023-05-29T13:35:54;634.75;;;616.28;;
19587;SDS011;9940;47.252;8.696;2023-05-29T13:38:24;631.92;;;613.55;;
19587;SDS011;9940;47.252;8.696;2023-05-29T13:40:51;658.03;;;638.85;;
19587;SDS011;9940;47.252;8.696;2023-05-29T13:43:34;651.35;;;632.60;;
19587;SDS011;9940;47.252;8.696;2023-05-29T13:46:12;660.88;;;641.63;;
19587;SDS011;9940;47.252;8.696;2023-05-29T13:48:43;647.28;;;628.53;;
19587;SDS011;9940;47.252;8.696;2023-05-29T13:51:13;751.00;;;730.20;;
19587;SDS011;9940;47.252;8.696;2023-05-29T13:53:50;714.90;;;694.50;;
19587;SDS011;9940;47.252;8.696;2023-05-29T13:56:21;644.83;;;626.05;;
19587;SDS011;9940;47.252;8.696;2023-05-29T13:59:04;709.85;;;689.80;;
19587;SDS011;9940;47.252;8.696;2023-05-29T14:01:37;670.33;;;650.97;;
19587;SDS011;9940;47.252;8.696;2023-05-29T14:04:06;732.45;;;712.00;;
19587;SDS011;9940;47.252;8.696;2023-05-29T14:06:37;827.60;;;805.13;;
19587;SDS011;9940;47.252;8.696;2023-05-29T14:09:13;824.80;;;802.45;;
19587;SDS011;9940;47.252;8.696;2023-05-29T14:11:44;806.38;;;784.30;;
19587;SDS011;9940;47.252;8.696;2023-05-29T14:14:12;864.83;;;841.60;;
19587;SDS011;9940;47.252;8.696;2023-05-29T14:16:49;865.70;;;842.47;;
19587;SDS011;9940;47.252;8.696;2023-05-29T14:19:17;845.75;;;822.85;;
19587;SDS011;9940;47.252;8.696;2023-05-29T14:21:44;706.58;;;686.65;;
19587;SDS011;9940;47.252;8.696;2023-05-29T14:24:10;799.63;;;777.78;;
19587;SDS011;9940;47.252;8.696;2023-05-29T14:26:36;775.58;;;754.22;;
19587;SDS011;9940;47.252;8.696;2023-05-29T14:29:05;886.75;;;863.00;;
19587;SDS011;9940;47.252;8.696;2023-05-29T14:34:28;830.03;;;807.55;;
19587;SDS011;9940;47.252;8.696;2023-05-29T14:36:57;695.97;;;676.13;;
19587;SDS011;9940;47.252;8.696;2023-05-29T14:39:33;782.30;;;760.45;;
19587;SDS011;9940;47.252;8.696;2023-05-29T14:42:17;847.13;;;824.38;;
19587;SDS011;9940;47.252;8.696;2023-05-29T14:44:58;875.88;;;852.38;;
19587;SDS011;9940;47.252;8.696;2023-05-29T14:47:31;746.10;;;725.33;;
19587;SDS011;9940;47.252;8.696;2023-05-29T14:49:57;800.22;;;778.25;;
19587;SDS011;9940;47.252;8.696;2023-05-29T14:52:25;775.70;;;754.33;;
19587;SDS011;9940;47.252;8.696;2023-05-29T14:54:51;744.55;;;723.85;;
19587;SDS011;9940;47.252;8.696;2023-05-29T14:57:38;743.03;;;722.28;;
19587;SDS011;9940;47.252;8.696;2023-05-29T15:00:03;925.38;;;900.95;;
19587;SDS011;9940;47.252;8.696;2023-05-29T15:02:31;827.95;;;805.55;;
19587;SDS011;9940;47.252;8.696;2023-05-29T15:04:57;781.47;;;759.88;;
19587;SDS011;9940;47.252;8.696;2023-05-29T15:07:37;722.38;;;702.00;;
19587;SDS011;9940;47.252;8.696;2023-05-29T15:10:03;738.85;;;718.22;;
19587;SDS011;9940;47.252;8.696;2023-05-29T15:12:32;752.03;;;731.10;;
19587;SDS011;9940;47.252;8.696;2023-05-29T15:14:58;650.33;;;631.65;;
19587;SDS011;9940;47.252;8.696;2023-05-29T15:17:44;596.22;;;578.45;;
19587;SDS011;9940;47.252;8.696;2023-05-29T15:20:42;719.55;;;699.40;;
19587;SDS011;9940;47.252;8.696;2023-05-29T15:23:21;712.47;;;692.28;;
19587;SDS011;9940;47.252;8.696;2023-05-29T15:25:48;679.55;;;660.25;;
19587;SDS011;9940;47.252;8.696;2023-05-29T15:28:22;589.88;;;572.28;;
19587;SDS011;9940;47.252;8.696;2023-05-29T15:31:03;656.67;;;637.60;;
19587;SDS011;9940;47.252;8.696;2023-05-29T15:33:29;582.63;;;565.28;;
19587;SDS011;9940;47.252;8.696;2023-05-29T15:35:58;643.88;;;625.10;;
19587;SDS011;9940;47.252;8.696;2023-05-29T15:38:24;687.00;;;667.45;;
19587;SDS011;9940;47.252;8.696;2023-05-29T15:40:55;676.67;;;657.20;;
19587;SDS011;9940;47.252;8.696;2023-05-29T15:43:21;653.25;;;634.42;;
19587;SDS011;9940;47.252;8.696;2023-05-29T15:45:47;719.08;;;698.88;;
19587;SDS011;9940;47.252;8.696;2023-05-29T15:48:28;574.00;;;556.85;;